createdAt,value
2023-11-16T00:01:43.097Z,9.50
2023-11-16T00:04:11.951Z,9.40
2023-11-16T00:06:40.897Z,9.50
2023-11-16T00:09:08.848Z,9.40
2023-11-16T00:11:43.126Z,9.30
2023-11-16T00:14:11.629Z,9.20
2023-11-16T00:16:39.605Z,9.20
2023-11-16T00:19:09.556Z,9.20
2023-11-16T00:21:37.670Z,9.30
2023-11-16T00:24:07.547Z,9.20
2023-11-16T00:26:37.976Z,9.20
2023-11-16T00:29:07.284Z,9.20
2023-11-16T00:31:35.215Z,9.30
2023-11-16T00:34:03.158Z,9.30
2023-11-16T00:36:31.082Z,9.30
2023-11-16T00:38:59.893Z,9.30
2023-11-16T00:41:28.081Z,9.30
2023-11-16T00:43:57.971Z,9.30
2023-11-16T00:46:26.944Z,9.30
2023-11-16T00:48:55.276Z,9.20
2023-11-16T00:51:23.275Z,9.20
2023-11-16T00:53:51.256Z,9.20
2023-11-16T00:56:19.542Z,9.10
2023-11-16T00:58:49.047Z,9.10
2023-11-16T01:01:18.357Z,9.00
2023-11-16T01:03:46.403Z,9.00
2023-11-16T01:06:15.173Z,9.00
2023-11-16T01:08:43.106Z,8.90
2023-11-16T01:11:13.938Z,8.90
2023-11-16T01:13:42.926Z,8.80
2023-11-16T01:16:14.305Z,8.80
2023-11-16T01:18:48.037Z,8.80
2023-11-16T01:21:16.628Z,8.90
2023-11-16T01:23:46.772Z,8.90
2023-11-16T01:26:16.936Z,9.00
2023-11-16T01:28:48.649Z,9.00
2023-11-16T01:31:16.793Z,9.00
2023-11-16T01:33:46.198Z,9.00
2023-11-16T01:36:14.759Z,9.00
2023-11-16T01:38:42.994Z,9.00
2023-11-16T01:41:13.974Z,8.90
2023-11-16T01:43:42.039Z,8.90
2023-11-16T01:46:10.684Z,8.80
2023-11-16T01:48:41.496Z,8.80
2023-11-16T01:51:13.377Z,8.70
2023-11-16T01:53:45.757Z,8.80
2023-11-16T01:56:16.804Z,8.80
2023-11-16T01:58:46.428Z,8.90
2023-11-16T02:01:17.269Z,8.90
2023-11-16T02:03:47.724Z,8.90
2023-11-16T02:06:17.873Z,8.90
2023-11-16T02:08:45.926Z,8.90
2023-11-16T02:11:15.144Z,9.00
2023-11-16T02:13:44.123Z,9.00
2023-11-16T02:16:11.985Z,9.10
2023-11-16T02:18:40.364Z,9.20
2023-11-16T02:21:10.058Z,9.30
2023-11-16T02:23:39.512Z,9.30
2023-11-16T02:26:08.557Z,9.30
2023-11-16T02:28:36.447Z,9.30
2023-11-16T02:31:05.147Z,9.30
2023-11-16T02:33:33.676Z,9.30
2023-11-16T02:36:01.623Z,9.30
2023-11-16T02:38:29.513Z,9.30
2023-11-16T02:41:00.518Z,9.30
2023-11-16T02:43:29.961Z,9.30
2023-11-16T02:45:58.125Z,9.20
2023-11-16T02:48:26.100Z,9.20
2023-11-16T02:50:54.128Z,9.20
2023-11-16T02:53:21.996Z,9.20
2023-11-16T02:55:49.900Z,9.20
2023-11-16T02:58:20.331Z,9.20
2023-11-16T03:00:48.502Z,9.10
2023-11-16T03:03:16.719Z,9.10
2023-11-16T03:05:44.634Z,9.10
2023-11-16T03:08:12.497Z,9.00
2023-11-16T03:10:40.589Z,8.90
2023-11-16T03:13:08.501Z,8.90
2023-11-16T03:15:39.058Z,8.90
2023-11-16T03:18:07.164Z,8.80
2023-11-16T03:20:35.310Z,8.80
2023-11-16T03:23:03.282Z,8.70
2023-11-16T03:25:34.936Z,8.80
2023-11-16T03:28:02.814Z,8.80
2023-11-16T03:30:30.987Z,8.70
2023-11-16T03:33:00.976Z,8.70
2023-11-16T03:35:28.902Z,8.70
2023-11-16T03:37:56.773Z,8.70
2023-11-16T03:40:25.886Z,8.70
2023-11-16T03:42:53.751Z,8.70
2023-11-16T03:45:22.041Z,8.60
2023-11-16T03:47:50.854Z,8.60
2023-11-16T03:50:20.371Z,8.60
2023-11-16T03:52:48.263Z,8.60
2023-11-16T03:55:16.391Z,8.60
2023-11-16T03:57:44.427Z,8.70
2023-11-16T04:00:14.266Z,8.60
2023-11-16T04:02:42.238Z,8.60
2023-11-16T04:05:11.003Z,8.60
2023-11-16T04:07:42.611Z,8.40
2023-11-16T04:10:13.712Z,8.50
2023-11-16T04:12:42.500Z,8.50
2023-11-16T04:15:14.629Z,8.50
2023-11-16T04:17:44.431Z,8.50
2023-11-16T04:20:13.927Z,8.50
2023-11-16T04:22:44.334Z,8.50
2023-11-16T04:25:20.002Z,8.50
2023-11-16T04:27:50.066Z,8.40
2023-11-16T04:30:19.374Z,8.40
2023-11-16T04:32:47.521Z,8.50
2023-11-16T04:35:16.723Z,8.50
2023-11-16T04:37:47.525Z,8.40
2023-11-16T04:40:16.112Z,8.40
2023-11-16T04:42:44.799Z,8.50
2023-11-16T04:45:13.727Z,8.50
2023-11-16T04:47:42.564Z,8.50
2023-11-16T04:50:11.689Z,8.60
2023-11-16T04:52:39.708Z,8.60
2023-11-16T04:55:13.087Z,8.60
2023-11-16T04:57:41.815Z,8.60
2023-11-16T05:00:13.112Z,8.50
2023-11-16T05:02:41.116Z,8.60
2023-11-16T05:05:09.148Z,8.60
2023-11-16T05:07:37.425Z,8.50
2023-11-16T05:10:08.548Z,8.50
2023-11-16T05:12:40.281Z,8.50
2023-11-16T05:15:10.116Z,8.40
2023-11-16T05:17:38.381Z,8.40
2023-11-16T05:20:07.142Z,8.40
2023-11-16T05:22:35.200Z,8.40
2023-11-16T05:25:03.052Z,8.40
2023-11-16T05:27:30.947Z,8.40
2023-11-16T05:30:00.468Z,8.40
2023-11-16T05:32:28.853Z,8.30
2023-11-16T05:34:58.635Z,8.30
2023-11-16T05:37:26.556Z,8.30
2023-11-16T05:39:54.808Z,8.30
2023-11-16T05:42:22.665Z,8.40
2023-11-16T05:44:50.457Z,8.30
2023-11-16T05:47:19.667Z,8.30
2023-11-16T05:49:48.467Z,8.30
2023-11-16T05:52:16.403Z,8.30
2023-11-16T05:54:44.376Z,8.30
2023-11-16T05:57:12.768Z,8.30
2023-11-16T05:59:40.712Z,8.20
2023-11-16T06:02:08.769Z,8.30
2023-11-16T06:04:38.209Z,8.30
2023-11-16T06:07:07.095Z,8.20
2023-11-16T06:09:35.197Z,8.30
2023-11-16T06:12:04.381Z,8.30
2023-11-16T06:14:44.679Z,8.30
2023-11-16T06:17:14.814Z,8.40
2023-11-16T06:19:44.077Z,8.30
2023-11-16T06:22:12.342Z,8.30
2023-11-16T06:24:40.318Z,8.30
2023-11-16T06:27:09.050Z,8.30
2023-11-16T06:29:37.112Z,8.20
2023-11-16T06:32:07.611Z,8.20
2023-11-16T06:34:35.790Z,8.10
2023-11-16T06:37:06.034Z,8.10
2023-11-16T06:39:34.290Z,8.10
2023-11-16T06:42:02.250Z,8.00
2023-11-16T06:44:30.886Z,8.00
2023-11-16T06:46:59.024Z,7.80
2023-11-16T06:49:28.240Z,7.70
2023-11-16T06:51:56.384Z,7.60
2023-11-16T06:54:34.017Z,7.50
2023-11-16T06:57:03.541Z,7.40
2023-11-16T06:59:31.824Z,7.30
2023-11-16T07:01:59.844Z,7.30
2023-11-16T07:04:27.997Z,7.30
2023-11-16T07:06:57.048Z,7.30
2023-11-16T07:09:28.476Z,7.40
2023-11-16T07:11:56.381Z,7.40
2023-11-16T07:14:24.322Z,7.50
2023-11-16T07:16:54.635Z,7.50
2023-11-16T07:19:23.742Z,7.60
2023-11-16T07:21:52.541Z,7.70
2023-11-16T07:24:20.548Z,7.80
2023-11-16T07:26:50.075Z,7.90
2023-11-16T07:29:19.058Z,8.00
2023-11-16T07:31:47.214Z,8.10
2023-11-16T07:34:15.227Z,8.30
2023-11-16T07:36:43.274Z,8.60
2023-11-16T07:39:13.995Z,8.90
2023-11-16T07:41:41.978Z,9.10
2023-11-16T07:44:11.550Z,9.20
2023-11-16T07:46:39.826Z,9.30
2023-11-16T07:49:10.137Z,9.40
2023-11-16T07:51:40.497Z,9.30
2023-11-16T07:54:09.086Z,9.10
2023-11-16T07:56:37.755Z,9.10
2023-11-16T07:59:09.173Z,8.90
2023-11-16T08:01:50.939Z,8.90
2023-11-16T08:04:19.980Z,8.80
2023-11-16T08:06:47.983Z,8.80
2023-11-16T08:09:19.553Z,8.80
2023-11-16T08:11:54.976Z,8.80
2023-11-16T08:14:26.234Z,8.80
2023-11-16T08:16:56.733Z,8.80
2023-11-16T08:19:26.614Z,8.70
2023-11-16T08:21:57.590Z,8.70
2023-11-16T08:24:27.219Z,8.70
2023-11-16T08:26:57.388Z,8.60
2023-11-16T08:29:25.325Z,8.70
2023-11-16T08:31:55.321Z,8.70
2023-11-16T08:34:28.236Z,8.70
2023-11-16T08:36:56.574Z,8.60
2023-11-16T08:39:27.381Z,8.70
2023-11-16T08:41:55.512Z,8.60
2023-11-16T08:44:24.270Z,8.60
2023-11-16T08:46:57.577Z,8.60
2023-11-16T08:49:27.040Z,8.60
2023-11-16T08:52:00.226Z,8.60
2023-11-16T08:54:29.455Z,8.60
2023-11-16T08:56:58.591Z,8.60
2023-11-16T08:59:26.990Z,8.60
2023-11-16T09:01:56.269Z,8.60
2023-11-16T09:04:26.233Z,8.70
2023-11-16T09:06:54.267Z,8.70
2023-11-16T09:09:38.795Z,8.70
2023-11-16T09:12:14.018Z,8.80
2023-11-16T09:14:43.407Z,8.80
2023-11-16T09:17:18.500Z,8.80
2023-11-16T09:19:51.303Z,8.80
2023-11-16T09:22:19.775Z,8.80
2023-11-16T09:24:49.664Z,8.80
2023-11-16T09:27:19.036Z,8.90
2023-11-16T09:29:48.319Z,8.90
2023-11-16T09:32:16.328Z,8.90
2023-11-16T09:34:44.423Z,9.10
2023-11-16T09:37:16.108Z,9.00
2023-11-16T09:39:44.085Z,9.10
2023-11-16T09:42:17.383Z,9.10
2023-11-16T09:44:56.723Z,9.10
2023-11-16T09:47:30.630Z,9.10
2023-11-16T09:50:00.011Z,9.20
2023-11-16T09:52:33.429Z,9.20
2023-11-16T09:55:04.957Z,9.20
2023-11-16T09:57:35.487Z,9.30
2023-11-16T10:00:15.538Z,9.20
2023-11-16T10:02:45.724Z,9.20
2023-11-16T10:05:24.802Z,9.20
2023-11-16T10:07:54.135Z,9.20
2023-11-16T10:10:22.578Z,9.30
2023-11-16T10:12:51.613Z,9.20
2023-11-16T10:15:21.824Z,9.20
2023-11-16T10:17:50.751Z,9.20
2023-11-16T10:20:19.657Z,9.20
2023-11-16T10:22:48.159Z,9.20
2023-11-16T10:25:18.450Z,9.20
2023-11-16T10:27:47.291Z,9.30
2023-11-16T10:30:16.682Z,9.30
2023-11-16T10:32:48.269Z,9.30
2023-11-16T10:35:18.983Z,9.40
2023-11-16T10:37:48.525Z,9.40
2023-11-16T10:40:18.628Z,9.40
2023-11-16T10:42:47.167Z,9.40
2023-11-16T10:45:16.283Z,9.40
2023-11-16T10:47:45.423Z,9.40
2023-11-16T10:50:16.660Z,9.50
2023-11-16T10:52:46.296Z,9.50
2023-11-16T10:55:17.537Z,9.60
2023-11-16T10:57:49.166Z,9.60
2023-11-16T11:00:19.006Z,9.50
2023-11-16T11:02:48.678Z,9.60
2023-11-16T11:05:23.345Z,9.60
2023-11-16T11:07:56.908Z,9.60
2023-11-16T11:10:25.704Z,9.60
2023-11-16T11:12:56.481Z,9.60
2023-11-16T11:15:31.135Z,9.70
2023-11-16T11:18:00.368Z,9.70
2023-11-16T11:20:33.674Z,9.70
2023-11-16T11:23:09.258Z,9.70
2023-11-16T11:25:42.645Z,9.70
2023-11-16T11:28:13.617Z,9.70
2023-11-16T11:30:50.698Z,9.90
2023-11-16T11:33:28.989Z,9.80
2023-11-16T11:35:57.024Z,9.70
2023-11-16T11:38:28.804Z,9.70
2023-11-16T11:41:07.670Z,9.70
2023-11-16T11:43:39.573Z,9.60
2023-11-16T11:46:10.666Z,9.60
2023-11-16T11:48:39.727Z,9.60
2023-11-16T11:51:09.552Z,9.60
2023-11-16T11:53:38.211Z,9.60
2023-11-16T11:56:08.127Z,9.60
2023-11-16T11:58:38.522Z,9.60
2023-11-16T12:01:10.094Z,9.50
2023-11-16T12:03:38.361Z,9.50
2023-11-16T12:06:09.510Z,9.50
2023-11-16T12:08:41.342Z,9.40
2023-11-16T12:11:13.056Z,9.30
2023-11-16T12:13:43.511Z,9.30
2023-11-16T12:16:13.722Z,9.30
2023-11-16T12:18:46.490Z,9.30
2023-11-16T12:21:14.665Z,9.30
2023-11-16T12:23:47.444Z,9.20
2023-11-16T12:26:17.632Z,9.10
2023-11-16T12:28:46.924Z,9.10
2023-11-16T12:31:18.558Z,9.10
2023-11-16T12:33:49.459Z,9.00
2023-11-16T12:36:21.393Z,8.90
2023-11-16T12:38:49.609Z,9.00
2023-11-16T12:41:17.923Z,9.00
2023-11-16T12:43:47.601Z,8.90
2023-11-16T12:46:15.592Z,8.90
2023-11-16T12:48:45.783Z,9.00
2023-11-16T12:51:17.852Z,9.00
2023-11-16T12:53:45.723Z,9.10
2023-11-16T12:56:16.121Z,9.10
2023-11-16T12:58:44.205Z,9.10
2023-11-16T13:01:14.053Z,9.10
2023-11-16T13:03:49.649Z,9.20
2023-11-16T13:06:19.869Z,9.20
2023-11-16T13:08:48.006Z,9.20
2023-11-16T13:11:15.980Z,9.20
2023-11-16T13:13:44.045Z,9.20
2023-11-16T13:16:13.951Z,9.10
2023-11-16T13:18:42.131Z,9.10
2023-11-16T13:21:11.763Z,9.10
2023-11-16T13:23:40.900Z,9.10
2023-11-16T13:26:09.108Z,9.10
2023-11-16T13:28:37.110Z,9.10
2023-11-16T13:31:05.959Z,9.20
2023-11-16T13:33:35.295Z,9.20
2023-11-16T13:36:03.496Z,9.30
2023-11-16T13:38:33.661Z,9.40
2023-11-16T13:41:01.633Z,9.30
2023-11-16T13:43:29.560Z,9.30
2023-11-16T13:45:58.435Z,9.20
2023-11-16T13:48:26.360Z,9.20
2023-11-16T13:50:55.601Z,9.20
2023-11-16T13:53:23.825Z,9.30
2023-11-16T13:55:51.658Z,9.30
2023-11-16T13:58:19.530Z,9.30
2023-11-16T14:00:47.455Z,9.30
2023-11-16T14:03:15.449Z,9.20
2023-11-16T14:05:43.414Z,9.20
2023-11-16T14:08:14.223Z,9.10
2023-11-16T14:10:42.093Z,9.10
2023-11-16T14:13:11.183Z,9.10
2023-11-16T14:15:39.465Z,9.10
2023-11-16T14:18:07.690Z,9.10
2023-11-16T14:20:35.629Z,9.10
2023-11-16T14:23:04.234Z,9.20
2023-11-16T14:25:39.380Z,9.20
2023-11-16T14:28:13.130Z,9.20
2023-11-16T14:30:41.016Z,9.20
2023-11-16T14:33:09.107Z,9.20
2023-11-16T14:35:37.045Z,9.20
2023-11-16T14:38:05.330Z,9.10
2023-11-16T14:40:34.660Z,9.10
2023-11-16T14:43:02.931Z,9.00
2023-11-16T14:45:30.849Z,9.00
2023-11-16T14:47:59.192Z,8.90
2023-11-16T14:50:27.451Z,8.80
2023-11-16T14:53:01.685Z,8.80
2023-11-16T14:55:37.057Z,8.80
2023-11-16T14:58:05.066Z,8.80
2023-11-16T15:00:33.549Z,8.80
2023-11-16T15:03:03.189Z,8.70
2023-11-16T15:05:37.138Z,8.70
2023-11-16T15:08:08.223Z,8.70
2023-11-16T15:10:38.319Z,8.60
2023-11-16T15:13:07.380Z,8.60
2023-11-16T15:15:35.614Z,8.50
2023-11-16T15:18:03.900Z,8.50
2023-11-16T15:20:34.016Z,8.50
2023-11-16T15:23:01.927Z,8.40
2023-11-16T15:25:29.782Z,8.50
2023-11-16T15:27:59.035Z,8.50
2023-11-16T15:30:26.932Z,8.60
2023-11-16T15:32:55.219Z,8.70
2023-11-16T15:35:25.873Z,8.70
2023-11-16T15:37:57.494Z,8.60
2023-11-16T15:40:26.491Z,8.50
2023-11-16T15:42:54.465Z,8.60
2023-11-16T15:45:24.262Z,8.60
2023-11-16T15:47:52.285Z,8.50
2023-11-16T15:50:20.429Z,8.50
2023-11-16T15:52:48.386Z,8.40
2023-11-16T15:55:18.007Z,8.40
2023-11-16T15:57:47.300Z,8.40
2023-11-16T16:00:20.567Z,8.40
2023-11-16T16:02:50.815Z,8.40
2023-11-16T16:05:20.296Z,8.40
2023-11-16T16:07:49.481Z,8.40
2023-11-16T16:10:17.549Z,8.30
2023-11-16T16:12:45.670Z,8.30
2023-11-16T16:15:15.313Z,8.30
2023-11-16T16:17:45.171Z,8.30
2023-11-16T16:20:15.436Z,8.30
2023-11-16T16:22:43.601Z,8.30
2023-11-16T16:25:15.071Z,8.30
2023-11-16T16:27:43.560Z,8.20
2023-11-16T16:30:14.338Z,8.20
2023-11-16T16:32:42.297Z,8.30
2023-11-16T16:35:10.679Z,8.30
2023-11-16T16:37:40.169Z,8.30
2023-11-16T16:40:09.716Z,8.20
2023-11-16T16:42:37.627Z,8.20
2023-11-16T16:45:08.720Z,8.20
2023-11-16T16:47:36.944Z,8.20
2023-11-16T16:50:05.786Z,8.20
2023-11-16T16:52:33.762Z,8.30
2023-11-16T16:55:05.081Z,8.30
2023-11-16T16:57:33.017Z,8.30
2023-11-16T17:00:01.171Z,8.30
2023-11-16T17:02:29.194Z,8.30
2023-11-16T17:04:57.669Z,8.30
2023-11-16T17:07:25.772Z,8.20
2023-11-16T17:09:53.681Z,8.20
2023-11-16T17:12:23.270Z,8.20
2023-11-16T17:14:53.741Z,8.20
2023-11-16T17:17:22.265Z,8.20
2023-11-16T17:19:50.289Z,8.20
2023-11-16T17:22:18.379Z,8.20
2023-11-16T17:24:46.382Z,8.20
2023-11-16T17:27:14.319Z,8.20
2023-11-16T17:29:47.586Z,8.20
2023-11-16T17:32:17.042Z,8.20
2023-11-16T17:34:44.979Z,8.20
2023-11-16T17:37:15.267Z,8.20
2023-11-16T17:39:43.359Z,8.20
2023-11-16T17:42:17.022Z,8.20
2023-11-16T17:44:46.309Z,8.20
2023-11-16T17:47:14.567Z,8.10
2023-11-16T17:49:42.435Z,8.00
2023-11-16T17:52:10.574Z,8.00
2023-11-16T17:54:40.238Z,8.00
2023-11-16T17:57:08.813Z,7.90
2023-11-16T17:59:37.246Z,7.90
2023-11-16T18:02:08.243Z,7.80
2023-11-16T18:04:40.015Z,7.80
2023-11-16T18:07:09.044Z,7.80
2023-11-16T18:09:36.924Z,7.80
2023-11-16T18:12:15.439Z,7.70
2023-11-16T18:14:43.494Z,7.70
2023-11-16T18:17:13.050Z,7.70
2023-11-16T18:19:40.989Z,7.70
2023-11-16T18:22:09.064Z,7.70
2023-11-16T18:24:38.008Z,7.70
2023-11-16T18:27:07.140Z,7.60
2023-11-16T18:29:35.532Z,7.60
2023-11-16T18:32:03.760Z,7.70
2023-11-16T18:34:42.421Z,7.60
2023-11-16T18:37:12.041Z,7.60
2023-11-16T18:39:40.649Z,7.60
2023-11-16T18:42:11.011Z,7.60
2023-11-16T18:44:39.060Z,7.60
2023-11-16T18:47:08.807Z,7.60
2023-11-16T18:49:38.265Z,7.60
2023-11-16T18:52:08.195Z,7.60
2023-11-16T18:54:36.472Z,7.60
2023-11-16T18:57:05.278Z,7.60
2023-11-16T18:59:33.139Z,7.60
2023-11-16T19:02:01.037Z,7.60
2023-11-16T19:04:29.218Z,7.60
2023-11-16T19:06:58.463Z,7.60
2023-11-16T19:09:26.374Z,7.60
2023-11-16T19:11:54.331Z,7.60
2023-11-16T19:14:22.380Z,7.50
2023-11-16T19:16:50.392Z,7.50
2023-11-16T19:19:18.455Z,7.50
2023-11-16T19:21:46.587Z,7.60
2023-11-16T19:24:16.520Z,7.50
2023-11-16T19:26:46.682Z,7.50
2023-11-16T19:29:14.584Z,7.50
2023-11-16T19:31:45.720Z,7.50
2023-11-16T19:34:14.523Z,7.50
2023-11-16T19:36:43.261Z,7.50
2023-11-16T19:39:11.415Z,7.50
2023-11-16T19:41:46.128Z,7.50
2023-11-16T19:44:14.569Z,7.50
2023-11-16T19:46:45.644Z,7.50
2023-11-16T19:49:14.679Z,7.50
2023-11-16T19:51:42.637Z,7.50
2023-11-16T19:54:11.402Z,7.50
2023-11-16T19:56:40.745Z,7.50
2023-11-16T19:59:10.227Z,7.50
2023-11-16T20:01:38.237Z,7.50
2023-11-16T20:04:06.996Z,7.50
2023-11-16T20:06:35.159Z,7.50
2023-11-16T20:09:03.770Z,7.50
2023-11-16T20:11:31.621Z,7.50
2023-11-16T20:14:00.888Z,7.50
2023-11-16T20:16:31.455Z,7.50
2023-11-16T20:18:59.467Z,7.50
2023-11-16T20:21:27.331Z,7.50
2023-11-16T20:23:55.527Z,7.50
2023-11-16T20:26:24.203Z,7.50
2023-11-16T20:28:53.488Z,7.50
2023-11-16T20:31:24.277Z,7.50
2023-11-16T20:33:52.180Z,7.50
2023-11-16T20:36:20.511Z,7.50
2023-11-16T20:38:48.680Z,7.50
2023-11-16T20:41:16.555Z,7.50
2023-11-16T20:43:44.416Z,7.50
2023-11-16T20:46:13.468Z,7.50
2023-11-16T20:48:42.857Z,7.50
2023-11-16T20:51:10.767Z,7.50
2023-11-16T20:53:38.711Z,7.50
2023-11-16T20:56:07.644Z,7.50
2023-11-16T20:58:37.319Z,7.50
2023-11-16T21:01:07.523Z,7.50
2023-11-16T21:03:35.985Z,7.50
2023-11-16T21:06:05.928Z,7.50
2023-11-16T21:08:33.805Z,7.50
2023-11-16T21:11:02.038Z,7.50
2023-11-16T21:13:30.354Z,7.50
2023-11-16T21:15:58.286Z,7.50
2023-11-16T21:18:26.275Z,7.50
2023-11-16T21:20:54.514Z,7.50
2023-11-16T21:23:23.754Z,7.50
2023-11-16T21:25:51.592Z,7.50
2023-11-16T21:28:20.275Z,7.50
2023-11-16T21:30:48.510Z,7.50
2023-11-16T21:33:16.459Z,7.50
2023-11-16T21:35:44.725Z,7.50
2023-11-16T21:38:13.725Z,7.50
2023-11-16T21:40:43.015Z,7.40
2023-11-16T21:43:11.453Z,7.50
2023-11-16T21:45:41.017Z,7.40
2023-11-16T21:48:09.109Z,7.40
2023-11-16T21:50:38.077Z,7.40
2023-11-16T21:53:09.968Z,7.40
2023-11-16T21:55:38.171Z,7.40
2023-11-16T21:58:07.692Z,7.40
2023-11-16T22:00:35.541Z,7.40
2023-11-16T22:03:04.970Z,7.40
2023-11-16T22:05:33.417Z,7.40
2023-11-16T22:08:01.265Z,7.40
2023-11-16T22:10:29.077Z,7.40
2023-11-16T22:12:57.711Z,7.40
2023-11-16T22:15:27.626Z,7.40
2023-11-16T22:17:55.622Z,7.40
2023-11-16T22:20:23.817Z,7.40
2023-11-16T22:22:51.698Z,7.40
2023-11-16T22:25:19.876Z,7.40
2023-11-16T22:27:49.336Z,7.40
2023-11-16T22:30:20.621Z,7.40
2023-11-16T22:32:50.531Z,7.40
2023-11-16T22:35:19.841Z,7.40
2023-11-16T22:37:49.109Z,7.40
2023-11-16T22:40:20.021Z,7.40
2023-11-16T22:42:49.589Z,7.40
2023-11-16T22:45:17.606Z,7.40
2023-11-16T22:47:46.690Z,7.40
2023-11-16T22:50:16.521Z,7.40
2023-11-16T22:52:44.622Z,7.40
2023-11-16T22:55:14.885Z,7.40
2023-11-16T22:57:43.583Z,7.40
2023-11-16T23:00:21.564Z,7.40
2023-11-16T23:02:49.558Z,7.40
2023-11-16T23:05:19.590Z,7.40
2023-11-16T23:07:48.994Z,7.40
2023-11-16T23:10:17.971Z,7.40
2023-11-16T23:12:46.400Z,7.40
2023-11-16T23:15:14.528Z,7.40
2023-11-16T23:17:44.282Z,7.40
2023-11-16T23:20:12.983Z,7.40
2023-11-16T23:22:42.198Z,7.40
2023-11-16T23:25:13.612Z,7.40
2023-11-16T23:27:41.817Z,7.40
2023-11-16T23:30:11.550Z,7.40
2023-11-16T23:32:38.665Z,7.40
2023-11-16T23:35:07.707Z,7.40
2023-11-16T23:37:35.727Z,7.40
2023-11-16T23:40:06.183Z,7.40
2023-11-16T23:42:35.349Z,7.40
2023-11-16T23:45:03.863Z,7.30
2023-11-16T23:47:31.807Z,7.30
2023-11-16T23:49:59.721Z,7.30
2023-11-16T23:52:27.704Z,7.40
2023-11-16T23:54:55.638Z,7.30
2023-11-16T23:57:24.909Z,7.30
2023-11-16T23:59:52.832Z,7.30
